Time;durP1;ratioP1;P1;durP2;ratioP2;P2;SDS_P1;SDS_P2;PMS_P1;PMS_P2;Temp;Humidity;BMP_temperature;BMP_pressure;BME280_temperature;BME280_humidity;BME280_pressure;Samples;Min_cycle;Max_cycle;Signal;HPM_P1;HPM_P2
2023/04/06 00:01:44;;;;;;;11.27;10.13;;;;;;;;;;5074972;28;20044;-61
2023/04/06 00:04:10;;;;;;;11.93;10.80;;;;;;;;;;5075011;28;20055;-61
2023/04/06 00:06:37;;;;;;;11.77;10.65;;;;;;;;;;5074626;28;20063;-61
2023/04/06 00:09:03;;;;;;;10.60;9.70;;;;;;;;;;5074580;28;20051;-61
2023/04/06 00:11:29;;;;;;;10.65;9.77;;;;;;;;;;5074564;28;20510;-61
2023/04/06 00:13:56;;;;;;;10.27;9.38;;;;;;;;;;5074424;28;20044;-61
2023/04/06 00:16:22;;;;;;;10.52;9.63;;;;;;;;;;5074751;28;20140;-61
2023/04/06 00:18:50;;;;;;;;;;;;;;;;;;5074782;28;20041;-61
2023/04/06 00:21:16;;;;;;;10.43;9.48;;;;;;;;;;5074374;28;20368;-61
2023/04/06 00:23:43;;;;;;;9.98;9.05;;;;;;;;;;5074529;28;20136;-61
2023/04/06 00:26:10;;;;;;;11.73;10.52;;;;;;;;;;5074431;28;20048;-61
2023/04/06 00:28:37;;;;;;;10.38;9.48;;;;;;;;;;5074419;28;20136;-61
2023/04/06 00:31:03;;;;;;;10.80;9.90;;;;;;;;;;5074470;28;20049;-61
2023/04/06 00:33:30;;;;;;;10.57;9.60;;;;;;;;;;5074523;28;20047;-61
2023/04/06 00:35:56;;;;;;;10.43;9.45;;;;;;;;;;5074040;28;20485;-62
2023/04/06 00:38:22;;;;;;;11.35;10.25;;;;;;;;;;5074309;28;20101;-61
2023/04/06 00:40:49;;;;;;;11.10;10.13;;;;;;;;;;5074168;28;20051;-61
2023/04/06 00:43:16;;;;;;;21.58;16.90;;;;;;;;;;5073967;28;20044;-61
2023/04/06 00:45:42;;;;;;;10.20;9.32;;;;;;;;;;5074067;28;20051;-61
2023/04/06 00:48:09;;;;;;;10.60;9.73;;;;;;;;;;5074078;28;20083;-61
2023/04/06 00:50:35;;;;;;;10.82;9.93;;;;;;;;;;5073843;28;20064;-61
2023/04/06 00:53:01;;;;;;;15.07;13.50;;;;;;;;;;5074116;28;20054;-61
2023/04/06 00:55:28;;;;;;;12.13;11.02;;;;;;;;;;5073761;28;20050;-61
2023/04/06 00:57:56;;;;;;;10.88;9.98;;;;;;;;;;5073667;28;20044;-61
2023/04/06 01:00:23;;;;;;;10.15;9.27;;;;;;;;;;5072682;28;20226;-61
2023/04/06 01:02:49;;;;;;;10.45;9.43;;;;;;;;;;5073921;28;20075;-61
2023/04/06 01:05:16;;;;;;;10.10;9.20;;;;;;;;;;5073571;28;20056;-61
2023/04/06 01:07:42;;;;;;;10.20;9.30;;;;;;;;;;5073812;28;20438;-61
2023/04/06 01:10:09;;;;;;;9.65;8.85;;;;;;;;;;5073436;28;20488;-61
2023/04/06 01:12:37;;;;;;;9.35;8.55;;;;;;;;;;5073700;28;20044;-61
2023/04/06 01:15:04;;;;;;;9.00;8.25;;;;;;;;;;5073759;28;20080;-61
2023/04/06 01:17:30;;;;;;;8.02;7.43;;;;;;;;;;5073269;28;20040;-61
2023/04/06 01:19:56;;;;;;;8.13;7.40;;;;;;;;;;5073556;28;20052;-61
2023/04/06 01:22:24;;;;;;;7.35;6.75;;;;;;;;;;5073243;28;20488;-61
2023/04/06 01:24:50;;;;;;;7.15;6.55;;;;;;;;;;5073416;28;20048;-61
2023/04/06 01:27:16;;;;;;;6.65;6.15;;;;;;;;;;5073331;28;20049;-61
2023/04/06 01:29:43;;;;;;;6.35;5.85;;;;;;;;;;5073137;28;20500;-61
2023/04/06 01:32:09;;;;;;;6.72;6.20;;;;;;;;;;5072946;28;20052;-61
2023/04/06 01:34:35;;;;;;;6.63;6.13;;;;;;;;;;5073028;28;20056;-61
2023/04/06 01:37:02;;;;;;;7.07;6.47;;;;;;;;;;5072895;28;20568;-61
2023/04/06 01:39:28;;;;;;;6.53;6.03;;;;;;;;;;5073167;28;20041;-61
2023/04/06 01:41:55;;;;;;;7.07;6.47;;;;;;;;;;5073067;28;20060;-61
2023/04/06 01:44:21;;;;;;;7.07;6.47;;;;;;;;;;5072719;28;20050;-61
2023/04/06 01:46:47;;;;;;;6.85;6.35;;;;;;;;;;5072695;28;20119;-61
2023/04/06 01:49:14;;;;;;;8.15;6.10;;;;;;;;;;5072696;28;20055;-61
2023/04/06 01:51:40;;;;;;;6.00;5.50;;;;;;;;;;5072539;28;20048;-61
2023/04/06 01:54:07;;;;;;;5.53;5.13;;;;;;;;;;5073223;28;20056;-61
2023/04/06 01:56:33;;;;;;;5.40;5.00;;;;;;;;;;5072398;28;20051;-61
2023/04/06 01:59:00;;;;;;;5.57;5.15;;;;;;;;;;5072470;28;20040;-61
2023/04/06 02:01:26;;;;;;;6.97;6.38;;;;;;;;;;5072772;28;20052;-61
2023/04/06 02:03:53;;;;;;;6.43;5.90;;;;;;;;;;5072679;28;20074;-61
2023/04/06 02:06:20;;;;;;;7.82;7.15;;;;;;;;;;5072413;28;20048;-61
2023/04/06 02:08:46;;;;;;;7.97;7.28;;;;;;;;;;5072255;28;20053;-61
2023/04/06 02:11:13;;;;;;;8.10;7.32;;;;;;;;;;5072231;28;20071;-61
2023/04/06 02:13:39;;;;;;;8.23;7.50;;;;;;;;;;5072244;28;20056;-61
2023/04/06 02:16:06;;;;;;;7.93;7.22;;;;;;;;;;5072257;28;20054;-61
2023/04/06 02:18:32;;;;;;;7.82;7.20;;;;;;;;;;5065610;28;20044;-61
2023/04/06 02:20:58;;;;;;;6.70;6.10;;;;;;;;;;5072310;28;20094;-61
2023/04/06 02:23:25;;;;;;;4.25;3.95;;;;;;;;;;5072093;28;20075;-61
2023/04/06 02:25:51;;;;;;;2.60;2.40;;;;;;;;;;5072013;28;20044;-61
2023/04/06 02:28:17;;;;;;;1.70;1.60;;;;;;;;;;5072162;28;20054;-61
2023/04/06 02:30:44;;;;;;;1.23;1.00;;;;;;;;;;5072259;28;20044;-61
2023/04/06 02:33:10;;;;;;;0.75;0.75;;;;;;;;;;5072111;28;20048;-61
2023/04/06 02:35:37;;;;;;;0.50;0.47;;;;;;;;;;5071857;28;20068;-61
2023/04/06 02:38:03;;;;;;;0.57;0.43;;;;;;;;;;5071852;28;20048;-61
2023/04/06 02:40:29;;;;;;;0.55;0.30;;;;;;;;;;5071818;28;20048;-61
2023/04/06 02:42:56;;;;;;;0.60;0.30;;;;;;;;;;5071726;28;20048;-61
2023/04/06 02:45:22;;;;;;;0.22;0.20;;;;;;;;;;5071966;28;20047;-61
2023/04/06 02:47:48;;;;;;;0.43;0.30;;;;;;;;;;5071792;28;20048;-61
2023/04/06 02:50:15;;;;;;;1.13;0.30;;;;;;;;;;5071857;28;20052;-61
2023/04/06 02:52:41;;;;;;;1.95;0.30;;;;;;;;;;5071617;28;20496;-61
2023/04/06 02:55:08;;;;;;;3.47;0.50;;;;;;;;;;5071726;28;20502;-61
2023/04/06 02:57:35;;;;;;;0.68;0.15;;;;;;;;;;5071509;28;20381;-61
2023/04/06 03:00:01;;;;;;;0.88;0.25;;;;;;;;;;5071548;28;20099;-61
2023/04/06 03:02:27;;;;;;;2.30;0.55;;;;;;;;;;5071851;28;20048;-61
2023/04/06 03:04:54;;;;;;;2.17;0.40;;;;;;;;;;5071706;28;20049;-61
2023/04/06 03:07:21;;;;;;;1.50;0.32;;;;;;;;;;5071766;28;20045;-61
2023/04/06 03:09:47;;;;;;;1.52;0.40;;;;;;;;;;5071516;28;20052;-61
2023/04/06 03:12:13;;;;;;;3.03;0.40;;;;;;;;;;5071346;28;20048;-61
2023/04/06 03:14:40;;;;;;;3.25;0.47;;;;;;;;;;5071386;28;20053;-61
2023/04/06 03:17:06;;;;;;;2.03;0.40;;;;;;;;;;5071239;28;20062;-61
2023/04/06 03:19:32;;;;;;;2.60;0.60;;;;;;;;;;5071391;28;20045;-61
2023/04/06 03:21:59;;;;;;;2.75;0.63;;;;;;;;;;5072434;28;20049;-61
2023/04/06 03:24:25;;;;;;;3.42;0.60;;;;;;;;;;5075507;28;20044;-61
2023/04/06 03:26:51;;;;;;;2.20;0.52;;;;;;;;;;5075443;28;20436;-61
2023/04/06 03:29:18;;;;;;;2.42;0.50;;;;;;;;;;5075345;28;20523;-61
2023/04/06 03:31:44;;;;;;;4.18;0.90;;;;;;;;;;5075526;28;20048;-61
2023/04/06 03:34:11;;;;;;;2.17;0.70;;;;;;;;;;5075294;28;20052;-61
2023/04/06 03:36:37;;;;;;;2.95;0.80;;;;;;;;;;5075407;28;20053;-61
2023/04/06 03:39:04;;;;;;;3.10;0.70;;;;;;;;;;5075492;28;20056;-61
2023/04/06 03:41:31;;;;;;;4.32;0.80;;;;;;;;;;5075349;28;20044;-61
2023/04/06 03:43:57;;;;;;;4.32;1.00;;;;;;;;;;5075394;28;20059;-61
2023/04/06 03:46:23;;;;;;;4.25;1.08;;;;;;;;;;5075359;28;20047;-61
2023/04/06 03:48:50;;;;;;;5.28;0.98;;;;;;;;;;5075093;28;20048;-61
2023/04/06 03:51:16;;;;;;;6.78;1.50;;;;;;;;;;5075045;28;20049;-61
2023/04/06 03:53:43;;;;;;;6.85;1.48;;;;;;;;;;5074944;28;20045;-61
2023/04/06 03:56:09;;;;;;;6.68;1.13;;;;;;;;;;5075153;28;20048;-61
2023/04/06 03:58:35;;;;;;;6.30;1.48;;;;;;;;;;5074971;28;20045;-61
2023/04/06 04:01:02;;;;;;;8.93;2.10;;;;;;;;;;5074690;28;20057;-61
2023/04/06 04:03:28;;;;;;;10.15;2.83;;;;;;;;;;5074948;28;20463;-61
2023/04/06 04:05:55;;;;;;;12.55;2.13;;;;;;;;;;5057018;28;20128;-61
2023/04/06 04:08:21;;;;;;;11.85;2.35;;;;;;;;;;5074557;28;20132;-61
2023/04/06 04:10:48;;;;;;;11.70;2.20;;;;;;;;;;5074660;28;20063;-61
2023/04/06 04:13:14;;;;;;;13.93;2.25;;;;;;;;;;5074939;28;20151;-61
2023/04/06 04:15:41;;;;;;;15.52;2.40;;;;;;;;;;5074736;28;20048;-61
2023/04/06 04:18:07;;;;;;;14.82;2.47;;;;;;;;;;5074721;28;20285;-61
2023/04/06 04:20:34;;;;;;;17.10;2.70;;;;;;;;;;5070433;28;20037;-61
2023/04/06 04:23:00;;;;;;;12.75;2.58;;;;;;;;;;5064405;28;20044;-61
2023/04/06 04:25:26;;;;;;;15.27;2.65;;;;;;;;;;5074525;28;20071;-61
2023/04/06 04:27:53;;;;;;;15.80;3.42;;;;;;;;;;5074327;28;20048;-61
2023/04/06 04:30:19;;;;;;;9.80;2.25;;;;;;;;;;5074549;28;20048;-61
2023/04/06 04:32:46;;;;;;;11.05;2.67;;;;;;;;;;5074110;28;20487;-61
2023/04/06 04:35:13;;;;;;;11.52;2.05;;;;;;;;;;5072910;28;20055;-61
2023/04/06 04:37:40;;;;;;;6.53;1.63;;;;;;;;;;5073898;28;20049;-61
2023/04/06 04:40:07;;;;;;;9.48;1.80;;;;;;;;;;5074382;28;20049;-61
2023/04/06 04:42:34;;;;;;;12.50;2.85;;;;;;;;;;5074047;28;20062;-61
2023/04/06 04:45:00;;;;;;;10.25;2.17;;;;;;;;;;5074232;28;20040;-61
2023/04/06 04:47:26;;;;;;;8.32;1.75;;;;;;;;;;5074305;28;20055;-61
2023/04/06 04:49:53;;;;;;;8.02;1.88;;;;;;;;;;5073855;28;20094;-61
2023/04/06 04:52:19;;;;;;;9.82;2.10;;;;;;;;;;5073867;28;20052;-61
2023/04/06 04:54:46;;;;;;;10.48;2.10;;;;;;;;;;5074206;28;20127;-61
2023/04/06 04:57:13;;;;;;;7.05;1.55;;;;;;;;;;5073776;28;20492;-61
2023/04/06 04:59:39;;;;;;;8.05;1.80;;;;;;;;;;5073439;28;20056;-61
2023/04/06 05:02:06;;;;;;;10.23;1.88;;;;;;;;;;5073963;28;20087;-61
2023/04/06 05:04:32;;;;;;;9.43;1.77;;;;;;;;;;5073943;28;20045;-61
2023/04/06 05:07:03;;;;;;;10.70;2.28;;;;;;;;;;5073731;28;20079;-61
2023/04/06 05:09:30;;;;;;;6.65;1.58;;;;;;;;;;5073693;28;20075;-61
2023/04/06 05:11:57;;;;;;;11.20;2.42;;;;;;;;;;5073510;28;20477;-61
2023/04/06 05:14:23;;;;;;;11.65;2.08;;;;;;;;;;5073571;28;20087;-61
2023/04/06 05:16:50;;;;;;;12.23;2.45;;;;;;;;;;5073376;28;20458;-61
2023/04/06 05:19:16;;;;;;;11.25;3.30;;;;;;;;;;5073827;28;20056;-61
2023/04/06 05:21:42;;;;;;;14.55;3.55;;;;;;;;;;5073549;28;20052;-61
2023/04/06 05:24:09;;;;;;;16.77;4.45;;;;;;;;;;5073445;28;20045;-61
2023/04/06 05:26:35;;;;;;;15.02;4.38;;;;;;;;;;5073370;28;20047;-61
2023/04/06 05:29:01;;;;;;;12.32;5.15;;;;;;;;;;5073521;28;20048;-61
2023/04/06 05:31:28;;;;;;;20.55;5.68;;;;;;;;;;5073559;28;20056;-61
2023/04/06 05:33:55;;;;;;;27.70;5.28;;;;;;;;;;5073394;28;20052;-61
2023/04/06 05:36:21;;;;;;;15.45;5.95;;;;;;;;;;5073206;28;20052;-61
2023/04/06 05:38:50;;;;;;;18.67;6.80;;;;;;;;;;5073161;28;20177;-61
2023/04/06 05:41:16;;;;;;;21.30;7.05;;;;;;;;;;5072896;28;20055;-61
2023/04/06 05:43:42;;;;;;;22.27;7.45;;;;;;;;;;5072943;28;20055;-61
2023/04/06 05:46:09;;;;;;;23.75;7.43;;;;;;;;;;5072316;28;20064;-61
2023/04/06 05:48:35;;;;;;;18.38;7.40;;;;;;;;;;5073030;28;20048;-61
2023/04/06 05:51:05;;;;;;;21.77;8.23;;;;;;;;;;5072737;28;20136;-61
2023/04/06 05:53:32;;;;;;;23.25;8.07;;;;;;;;;;5072684;28;20583;-61
2023/04/06 05:56:02;;;;;;;20.25;7.32;;;;;;;;;;5072848;28;20253;-61
2023/04/06 05:58:28;;;;;;;25.38;8.23;;;;;;;;;;5072452;28;20131;-61
2023/04/06 06:00:58;;;;;;;21.50;7.13;;;;;;;;;;5072352;28;20459;-61
2023/04/06 06:03:24;;;;;;;20.40;6.97;;;;;;;;;;5072727;28;20407;-61
2023/04/06 06:05:51;;;;;;;20.23;8.13;;;;;;;;;;5072750;28;20123;-61
2023/04/06 06:08:17;;;;;;;14.35;7.63;;;;;;;;;;5072419;28;20048;-61
2023/04/06 06:10:44;;;;;;;19.80;9.68;;;;;;;;;;5072671;28;20052;-61
2023/04/06 06:13:10;;;;;;;16.92;9.75;;;;;;;;;;5072600;28;20048;-61
2023/04/06 06:15:39;;;;;;;23.23;9.75;;;;;;;;;;5072151;28;20044;-61
2023/04/06 06:18:06;;;;;;;19.80;8.80;;;;;;;;;;5072488;28;20048;-61
2023/04/06 06:20:32;;;;;;;19.65;9.77;;;;;;;;;;5072382;28;20075;-61
2023/04/06 06:22:58;;;;;;;20.73;9.63;;;;;;;;;;5072275;28;20128;-61
2023/04/06 06:25:25;;;;;;;25.98;10.98;;;;;;;;;;5072021;28;20049;-61
2023/04/06 06:27:51;;;;;;;21.77;10.25;;;;;;;;;;5071929;28;20044;-61
2023/04/06 06:30:18;;;;;;;22.67;10.98;;;;;;;;;;5072262;28;20137;-61
2023/04/06 06:32:48;;;;;;;21.10;11.20;;;;;;;;;;5063026;28;20052;-61
2023/04/06 06:35:15;;;;;;;23.52;11.55;;;;;;;;;;5067723;28;20559;-61
2023/04/06 06:37:41;;;;;;;16.42;10.70;;;;;;;;;;5067393;28;20077;-60
2023/04/06 06:40:08;;;;;;;19.80;11.50;;;;;;;;;;5067166;28;20052;-61
2023/04/06 06:42:35;;;;;;;18.42;11.02;;;;;;;;;;5070862;28;20045;-60
2023/04/06 06:45:01;;;;;;;19.30;10.80;;;;;;;;;;5070907;28;20053;-60
2023/04/06 06:47:28;;;;;;;16.65;10.80;;;;;;;;;;5070989;28;20265;-61
2023/04/06 06:49:54;;;;;;;13.63;9.25;;;;;;;;;;5061314;28;20047;-61
2023/04/06 06:52:22;;;;;;;15.38;9.75;;;;;;;;;;5067349;28;20044;-61
2023/04/06 06:54:49;;;;;;;16.90;9.90;;;;;;;;;;5071949;28;20493;-61
2023/04/06 06:57:16;;;;;;;13.32;9.27;;;;;;;;;;5070709;28;20052;-61
2023/04/06 06:59:42;;;;;;;13.20;8.23;;;;;;;;;;5070307;28;20056;-60
2023/04/06 07:02:08;;;;;;;12.48;8.48;;;;;;;;;;5069385;28;20486;-60
2023/04/06 07:04:35;;;;;;;12.32;7.70;;;;;;;;;;5059920;28;20048;-60
2023/04/06 07:07:02;;;;;;;11.70;7.68;;;;;;;;;;5062037;28;20071;-59
2023/04/06 07:09:28;;;;;;;12.13;7.40;;;;;;;;;;5062095;28;20078;-61
2023/04/06 07:11:56;;;;;;;10.80;6.95;;;;;;;;;;5071483;28;20521;-61
2023/04/06 07:14:22;;;;;;;7.95;6.40;;;;;;;;;;5071001;28;20059;-60
2023/04/06 07:16:49;;;;;;;7.78;6.30;;;;;;;;;;5070886;28;20490;-61
2023/04/06 07:19:16;;;;;;;11.32;6.90;;;;;;;;;;5071229;28;20055;-59
2023/04/06 07:21:42;;;;;;;10.25;7.65;;;;;;;;;;5071537;28;20474;-61
2023/04/06 07:24:09;;;;;;;10.68;7.28;;;;;;;;;;5070642;28;20095;-61
2023/04/06 07:26:36;;;;;;;15.88;8.32;;;;;;;;;;5071265;28;20645;-61
2023/04/06 07:29:02;;;;;;;15.38;8.55;;;;;;;;;;5071000;28;20526;-61
2023/04/06 07:31:29;;;;;;;13.10;8.10;;;;;;;;;;5071504;28;20075;-61
2023/04/06 07:33:55;;;;;;;11.03;7.50;;;;;;;;;;5071309;28;20552;-61
2023/04/06 07:36:22;;;;;;;11.65;6.38;;;;;;;;;;5071515;28;20052;-61
2023/04/06 07:38:48;;;;;;;11.75;6.05;;;;;;;;;;5071111;28;20057;-61
2023/04/06 07:41:15;;;;;;;12.20;6.32;;;;;;;;;;5071190;28;20550;-61
2023/04/06 07:43:42;;;;;;;13.25;6.38;;;;;;;;;;5070841;28;20484;-61
2023/04/06 07:46:08;;;;;;;11.25;5.45;;;;;;;;;;5071399;28;20069;-61
2023/04/06 07:48:34;;;;;;;14.43;5.78;;;;;;;;;;5071187;28;20135;-61
2023/04/06 07:51:04;;;;;;;12.70;5.53;;;;;;;;;;5071226;28;20068;-61
2023/04/06 07:53:31;;;;;;;14.75;5.72;;;;;;;;;;5071284;28;20127;-61
2023/04/06 07:56:00;;;;;;;17.08;6.10;;;;;;;;;;5071363;28;20052;-61
2023/04/06 07:58:27;;;;;;;17.45;5.68;;;;;;;;;;5071086;28;20080;-61
2023/04/06 08:00:54;;;;;;;15.88;5.85;;;;;;;;;;5070072;28;20500;-61
2023/04/06 08:03:24;;;;;;;14.45;5.60;;;;;;;;;;5070510;28;20045;-61
2023/04/06 08:05:52;;;;;;;16.63;6.40;;;;;;;;;;5070686;28;20070;-62
2023/04/06 08:08:20;;;;;;;9.63;5.28;;;;;;;;;;5072025;28;20135;-61
2023/04/06 08:10:48;;;;;;;13.25;5.38;;;;;;;;;;5074949;28;20044;-61
2023/04/06 08:13:15;;;;;;;13.07;5.10;;;;;;;;;;5074626;28;20480;-61
2023/04/06 08:15:41;;;;;;;14.18;4.78;;;;;;;;;;5074720;28;20048;-61
2023/04/06 08:18:08;;;;;;;14.50;4.63;;;;;;;;;;5074512;28;20496;-61
2023/04/06 08:20:35;;;;;;;11.73;4.50;;;;;;;;;;5074258;28;20559;-61
2023/04/06 08:23:01;;;;;;;9.63;4.20;;;;;;;;;;5074759;28;20097;-61
2023/04/06 08:25:27;;;;;;;10.63;4.68;;;;;;;;;;5074467;28;20048;-61
2023/04/06 08:27:54;;;;;;;11.77;3.83;;;;;;;;;;5056523;28;20479;-61
2023/04/06 08:30:20;;;;;;;13.02;4.32;;;;;;;;;;5074423;28;20076;-61
2023/04/06 08:32:47;;;;;;;13.40;5.20;;;;;;;;;;5074186;28;20057;-61
2023/04/06 08:35:13;;;;;;;11.27;6.03;;;;;;;;;;5074477;28;20056;-61
2023/04/06 08:37:40;;;;;;;16.55;6.35;;;;;;;;;;5074296;28;20048;-61
2023/04/06 08:40:07;;;;;;;12.82;5.10;;;;;;;;;;5074087;28;20504;-61
2023/04/06 08:42:38;;;;;;;17.80;9.05;;;;;;;;;;5056165;28;20128;-61
2023/04/06 08:45:05;;;;;;;26.52;13.88;;;;;;;;;;5074111;28;20048;-61
2023/04/06 08:47:32;;;;;;;18.65;6.90;;;;;;;;;;5074583;28;20048;-61
2023/04/06 08:50:00;;;;;;;29.77;18.70;;;;;;;;;;5073915;28;20795;-61
2023/04/06 08:52:27;;;;;;;35.72;20.23;;;;;;;;;;5074192;28;20127;-61
2023/04/06 08:54:54;;;;;;;33.53;20.02;;;;;;;;;;5073762;28;20488;-61
2023/04/06 08:57:21;;;;;;;15.33;4.97;;;;;;;;;;5073811;28;20053;-61
2023/04/06 08:59:47;;;;;;;13.43;3.72;;;;;;;;;;5073685;28;20051;-61
2023/04/06 09:02:17;;;;;;;11.75;3.70;;;;;;;;;;5073747;28;20132;-61
2023/04/06 09:04:45;;;;;;;12.95;4.28;;;;;;;;;;5073886;28;20086;-61
2023/04/06 09:07:11;;;;;;;9.93;3.65;;;;;;;;;;5073784;28;20055;-61
2023/04/06 09:09:43;;;;;;;10.98;4.68;;;;;;;;;;5073596;28;20068;-61
2023/04/06 09:12:12;;;;;;;11.32;4.20;;;;;;;;;;5073578;28;20055;-61
2023/04/06 09:14:39;;;;;;;10.75;4.40;;;;;;;;;;5073470;28;20471;-61
2023/04/06 09:17:06;;;;;;;14.70;6.20;;;;;;;;;;5073680;28;20101;-61
2023/04/06 09:19:32;;;;;;;11.30;5.10;;;;;;;;;;5073111;28;20091;-61
2023/04/06 09:22:02;;;;;;;11.60;4.95;;;;;;;;;;5073412;28;20364;-61
2023/04/06 09:24:39;;;;;;;12.75;5.82;;;;;;;;;;5073435;28;20127;-61
2023/04/06 09:27:05;;;;;;;11.50;6.13;;;;;;;;;;5073212;28;20048;-61
2023/04/06 09:29:32;;;;;;;15.95;5.35;;;;;;;;;;5073197;28;20055;-61
2023/04/06 09:32:02;;;;;;;12.98;5.43;;;;;;;;;;5073139;28;20582;-61
2023/04/06 09:34:28;;;;;;;14.18;6.13;;;;;;;;;;5073027;28;20508;-61
2023/04/06 09:36:55;;;;;;;13.68;5.88;;;;;;;;;;5073356;28;20052;-61
2023/04/06 09:39:25;;;;;;;16.00;6.68;;;;;;;;;;5073008;28;20080;-61
2023/04/06 09:41:52;;;;;;;13.38;5.38;;;;;;;;;;5073498;28;20044;-61
2023/04/06 09:44:19;;;;;;;11.68;5.57;;;;;;;;;;5073109;28;20284;-61
2023/04/06 09:46:47;;;;;;;9.88;4.82;;;;;;;;;;5073068;28;20071;-61
2023/04/06 09:49:30;;;;;;;11.30;3.55;;;;;;;;;;5072903;28;20488;-61
2023/04/06 09:52:00;;;;;;;9.15;3.95;;;;;;;;;;5072816;28;20048;-62
2023/04/06 09:54:28;;;;;;;11.13;4.00;;;;;;;;;;5072719;28;20500;-61
2023/04/06 09:56:58;;;;;;;19.42;11.05;;;;;;;;;;5072890;28;20106;-62
2023/04/06 09:59:42;;;;;;;12.77;5.05;;;;;;;;;;5072567;28;20052;-61
2023/04/06 10:02:11;;;;;;;9.93;3.67;;;;;;;;;;5072900;28;20071;-61
2023/04/06 10:04:49;;;;;;;10.70;4.53;;;;;;;;;;5072505;28;20045;-61
2023/04/06 10:07:17;;;;;;;12.30;5.22;;;;;;;;;;5072710;28;20048;-61
2023/04/06 10:09:46;;;;;;;13.73;4.38;;;;;;;;;;5072582;28;20143;-61
2023/04/06 10:12:12;;;;;;;10.45;3.17;;;;;;;;;;5072605;28;20049;-61
2023/04/06 10:14:39;;;;;;;8.45;3.88;;;;;;;;;;5072315;28;20592;-62
2023/04/06 10:17:05;;;;;;;9.10;3.27;;;;;;;;;;5072271;28;20075;-62
2023/04/06 10:19:37;;;;;;;6.10;2.75;;;;;;;;;;5072438;28;20181;-61
2023/04/06 10:22:05;;;;;;;10.45;3.50;;;;;;;;;;5072145;28;20052;-61
2023/04/06 10:24:31;;;;;;;6.85;3.15;;;;;;;;;;5072089;28;20076;-61
2023/04/06 10:27:01;;;;;;;6.90;2.13;;;;;;;;;;5071920;28;20049;-62
2023/04/06 10:29:27;;;;;;;7.40;2.10;;;;;;;;;;5072266;28;20166;-62
2023/04/06 10:31:55;;;;;;;7.57;2.90;;;;;;;;;;5071992;28;20053;-62
2023/04/06 10:34:21;;;;;;;7.72;2.50;;;;;;;;;;5072189;28;20048;-62
2023/04/06 10:36:48;;;;;;;9.98;2.60;;;;;;;;;;5071997;28;20052;-61
2023/04/06 10:39:24;;;;;;;7.37;2.60;;;;;;;;;;5072005;28;20399;-61
2023/04/06 10:41:50;;;;;;;6.50;1.90;;;;;;;;;;5072213;28;20044;-62
2023/04/06 10:44:17;;;;;;;9.23;3.07;;;;;;;;;;5071772;28;20040;-61
2023/04/06 10:46:52;;;;;;;9.07;2.83;;;;;;;;;;5072018;28;20044;-61
2023/04/06 10:49:18;;;;;;;9.88;3.22;;;;;;;;;;5072135;28;20135;-62
2023/04/06 10:51:44;;;;;;;8.70;2.70;;;;;;;;;;5071840;28;20051;-62
2023/04/06 10:54:11;;;;;;;6.43;1.60;;;;;;;;;;5071872;28;20053;-62
2023/04/06 10:56:38;;;;;;;7.00;2.08;;;;;;;;;;5071646;28;20063;-62
2023/04/06 10:59:05;;;;;;;4.97;1.40;;;;;;;;;;5071541;28;20434;-62
2023/04/06 11:01:32;;;;;;;6.38;1.40;;;;;;;;;;5071603;28;20079;-62
2023/04/06 11:03:59;;;;;;;7.00;2.55;;;;;;;;;;5071991;28;20090;-62
2023/04/06 11:06:28;;;;;;;9.57;2.75;;;;;;;;;;5071667;28;20053;-62
2023/04/06 11:08:55;;;;;;;5.85;1.75;;;;;;;;;;5071594;28;20037;-62
2023/04/06 11:11:23;;;;;;;6.30;2.50;;;;;;;;;;5071800;28;20139;-62
2023/04/06 11:13:59;;;;;;;9.27;3.30;;;;;;;;;;5071668;28;20123;-62
2023/04/06 11:16:30;;;;;;;7.60;3.10;;;;;;;;;;5071651;28;20048;-62
2023/04/06 11:18:57;;;;;;;9.05;4.90;;;;;;;;;;5071692;28;20083;-62
2023/04/06 11:21:36;;;;;;;7.80;2.30;;;;;;;;;;5071373;28;20110;-62
2023/04/06 11:24:06;;;;;;;4.30;1.15;;;;;;;;;;5071659;28;20045;-62
2023/04/06 11:26:43;;;;;;;9.45;3.15;;;;;;;;;;5071241;28;20051;-62
2023/04/06 11:29:10;;;;;;;;;;;;;;;;;;5072005;28;20048;-62
2023/04/06 11:31:45;;;;;;;3.03;2.05;;;;;;;;;;5071404;28;19931;-62
2023/04/06 11:34:13;;;;;;;3.83;2.70;;;;;;;;;;5071547;28;20053;-62
2023/04/06 11:36:39;;;;;;;;;;;;;;;;;;5071982;28;20062;-62
2023/04/06 11:39:06;;;;;;;4.28;1.58;;;;;;;;;;5071530;28;19927;-62
2023/04/06 11:41:32;;;;;;;2.50;2.13;;;;;;;;;;5071446;28;20152;-62
2023/04/06 11:44:00;;;;;;;4.20;1.60;;;;;;;;;;5073460;28;20044;-62
2023/04/06 11:46:27;;;;;;;3.97;2.03;;;;;;;;;;5075122;28;20283;-62
2023/04/06 11:48:57;;;;;;;2.90;1.70;;;;;;;;;;5075399;28;20094;-62
2023/04/06 11:51:24;;;;;;;2.90;1.13;;;;;;;;;;5075376;28;20048;-61
2023/04/06 11:53:50;;;;;;;2.80;1.70;;;;;;;;;;5075295;28;20538;-62
2023/04/06 11:56:26;;;;;;;3.60;1.60;;;;;;;;;;5075072;28;20056;-62
2023/04/06 11:58:58;;;;;;;2.78;1.73;;;;;;;;;;5074842;28;20551;-62
2023/04/06 12:01:25;;;;;;;4.97;1.90;;;;;;;;;;5074721;28;20048;-62
2023/04/06 12:03:52;;;;;;;3.08;1.65;;;;;;;;;;5075066;28;20043;-62
2023/04/06 12:06:18;;;;;;;2.88;1.10;;;;;;;;;;5075127;28;20167;-62
2023/04/06 12:08:45;;;;;;;3.70;1.55;;;;;;;;;;5075123;28;20438;-62
2023/04/06 12:11:11;;;;;;;6.00;1.52;;;;;;;;;;5074761;28;20517;-62
2023/04/06 12:13:38;;;;;;;8.25;2.10;;;;;;;;;;5074848;28;20050;-62
2023/04/06 12:16:05;;;;;;;4.57;1.40;;;;;;;;;;5074613;28;20415;-62
2023/04/06 12:18:31;;;;;;;5.13;1.65;;;;;;;;;;5074615;28;20074;-62
2023/04/06 12:20:58;;;;;;;4.18;1.33;;;;;;;;;;5074402;28;20037;-62
2023/04/06 12:23:24;;;;;;;5.63;1.92;;;;;;;;;;5074622;28;20047;-62
2023/04/06 12:25:51;;;;;;;3.63;1.27;;;;;;;;;;5074588;28;20135;-62
2023/04/06 12:28:20;;;;;;;5.93;1.63;;;;;;;;;;5074296;28;20049;-62
2023/04/06 12:30:46;;;;;;;3.83;1.48;;;;;;;;;;5074545;28;20048;-62
2023/04/06 12:33:13;;;;;;;;;;;;;;;;;;5074966;28;20075;-62
2023/04/06 12:35:39;;;;;;;3.13;0.98;;;;;;;;;;5074357;28;19924;-62
2023/04/06 12:38:06;;;;;;;3.58;1.00;;;;;;;;;;5074219;28;20127;-62
2023/04/06 12:40:36;;;;;;;2.78;0.68;;;;;;;;;;5074399;28;20040;-62
2023/04/06 12:43:02;;;;;;;1.33;0.70;;;;;;;;;;5074358;28;20055;-62
2023/04/06 12:45:30;;;;;;;2.75;0.80;;;;;;;;;;5074346;28;20143;-62
2023/04/06 12:47:56;;;;;;;2.88;0.70;;;;;;;;;;5074267;28;20044;-62
2023/04/06 12:50:22;;;;;;;;;;;;;;;;;;5074585;28;20132;-63
2023/04/06 12:52:49;;;;;;;2.33;0.68;;;;;;;;;;5073977;28;19920;-62
2023/04/06 12:55:15;;;;;;;5.90;1.30;;;;;;;;;;5072977;28;20052;-62
2023/04/06 12:57:42;;;;;;;;;;;;;;;;;;5074271;28;20055;-62
2023/04/06 13:00:08;;;;;;;;;;;;;;;;;;5074095;28;19924;-62
2023/04/06 13:02:35;;;;;;;3.45;0.80;;;;;;;;;;5073936;28;19920;-62
2023/04/06 13:05:01;;;;;;;2.95;0.70;;;;;;;;;;5073835;28;20091;-62
2023/04/06 13:07:27;;;;;;;2.05;0.77;;;;;;;;;;5073976;28;20052;-62
2023/04/06 13:09:54;;;;;;;3.90;0.70;;;;;;;;;;5073577;28;20055;-62
2023/04/06 13:12:21;;;;;;;2.17;1.00;;;;;;;;;;5073887;28;20052;-63
2023/04/06 13:14:50;;;;;;;4.00;1.20;;;;;;;;;;5073551;28;20054;-62
2023/04/06 13:17:17;;;;;;;3.13;1.00;;;;;;;;;;5073749;28;20046;-62
2023/04/06 13:19:43;;;;;;;3.20;0.82;;;;;;;;;;5073450;28;20044;-62
2023/04/06 13:22:10;;;;;;;;;;;;;;;;;;5073869;28;20045;-62
2023/04/06 13:24:36;;;;;;;4.85;1.55;;;;;;;;;;5073312;28;19924;-62
2023/04/06 13:27:02;;;;;;;4.93;1.02;;;;;;;;;;5073376;28;20053;-62
2023/04/06 13:29:29;;;;;;;5.38;1.30;;;;;;;;;;5073497;28;20115;-62
2023/04/06 13:31:55;;;;;;;4.72;0.95;;;;;;;;;;5073479;28;20048;-62
2023/04/06 13:34:22;;;;;;;2.97;0.88;;;;;;;;;;5073167;28;20053;-62
2023/04/06 13:36:48;;;;;;;5.07;1.17;;;;;;;;;;5073096;28;20492;-62
2023/04/06 13:39:14;;;;;;;6.80;1.60;;;;;;;;;;5073025;28;20296;-62
2023/04/06 13:41:41;;;;;;;2.95;0.73;;;;;;;;;;5072923;28;20056;-62
2023/04/06 13:44:07;;;;;;;3.42;0.73;;;;;;;;;;5072940;28;20503;-62
2023/04/06 13:46:33;;;;;;;3.33;0.60;;;;;;;;;;5072861;28;20040;-62
2023/04/06 13:49:00;;;;;;;1.27;0.50;;;;;;;;;;5073110;28;20043;-62
2023/04/06 13:51:26;;;;;;;2.72;0.50;;;;;;;;;;5072754;28;20488;-62
2023/04/06 13:53:53;;;;;;;0.50;0.30;;;;;;;;;;5072737;28;20123;-62
2023/04/06 13:56:19;;;;;;;3.83;0.40;;;;;;;;;;5072937;28;20052;-62
2023/04/06 13:58:46;;;;;;;3.40;0.87;;;;;;;;;;5072707;28;20480;-62
2023/04/06 14:01:12;;;;;;;4.07;0.80;;;;;;;;;;5072436;28;20601;-62
2023/04/06 14:03:41;;;;;;;3.53;0.90;;;;;;;;;;5072470;28;20795;-62
2023/04/06 14:06:12;;;;;;;3.55;0.93;;;;;;;;;;5072064;28;20128;-62
2023/04/06 14:08:52;;;;;;;4.00;1.30;;;;;;;;;;5072207;28;20079;-62
2023/04/06 14:11:19;;;;;;;6.10;1.47;;;;;;;;;;5072568;28;20060;-62
2023/04/06 14:13:46;;;;;;;3.97;1.27;;;;;;;;;;5072384;28;20291;-62
2023/04/06 14:16:12;;;;;;;6.15;1.30;;;;;;;;;;5072435;28;20408;-62
2023/04/06 14:18:39;;;;;;;7.80;2.05;;;;;;;;;;5072176;28;20049;-62
2023/04/06 14:21:05;;;;;;;5.50;1.30;;;;;;;;;;5072075;28;20048;-62
2023/04/06 14:23:32;;;;;;;2.33;0.70;;;;;;;;;;5072590;28;20052;-62
2023/04/06 14:26:05;;;;;;;1.55;0.63;;;;;;;;;;5072095;28;20499;-62
2023/04/06 14:28:32;;;;;;;3.78;0.80;;;;;;;;;;5072443;28;20054;-62
2023/04/06 14:31:00;;;;;;;3.22;0.70;;;;;;;;;;5072056;28;20135;-62
2023/04/06 14:33:27;;;;;;;4.45;0.90;;;;;;;;;;5071913;28;20056;-62
2023/04/06 14:35:53;;;;;;;3.35;0.55;;;;;;;;;;5072163;28;20053;-62
2023/04/06 14:38:19;;;;;;;6.70;1.15;;;;;;;;;;5072145;28;20135;-62